x

Buoy B01 - Western Maine Shelf (44030) Wave Buoy

12:04pm - Wed 7th Dec 2016 All times are EST. -5 hours from GMT.

  • Sig Wave height 2.6ft
  • Peak Period 11s
  • Wind
    9mph, 13mph gusts
  • Sea Temp 50°f
  • 空気 Temp 37°f
  • Sea Pressure 1014.5mb
  • Buoy B01 - Western Maine Shelf
  • Buoy B01 - Western Maine Shelf

More Historic Weather Station data

Upgrade to MSW Pro to gain access to the past 30 days of data for over 8000 Wavebouys and Weather Stations around the globe.

Join Pro

Comparision Forecast

View Surf forecast
   
Wed 12/07 12:04pm 2.5ft 11s 9 13 mph 1014.5mb 50f 37f
11:04am 3ft 11s 13 16 mph 1015.5mb 50f 35f
10:04am 2.5ft 4s 13 16 mph 1015.8mb 50f 35f
9:04am 3.5ft 11s 16 18 mph 1015.8mb 50f 35f
8:04am 2.5ft 4s 16 20 mph 1015.2mb 50f 36f
7:04am 2.5ft 4s 18 22 mph 1014.1mb 50f 37f
6:04am 4ft 11s 13 18 mph 1014.1mb 50f 41f
5:04am 3.5ft 11s 13 16 mph 1013.8mb 50f 40f
4:04am 3.5ft 11s 13 18 mph 1013.6mb 50f 40f
3:04am 3ft 11s 11 13 mph 1014.4mb 50f 40f
2:04am 2ft 3s 11 16 mph 1015.3mb 50f 40f
1:04am  -   -  11 16 mph 1014.9mb 50f 40f
12:04am 2.5ft 11s 7 13 mph 1015.6mb 50f 40f
Tue 12/06 11:04pm 2.5ft 11s 11 13 mph 1016.3mb 50f 40f
10:04pm 2.5ft 11s 11 13 mph 1017.2mb 50f 40f
9:04pm 2ft 11s 7 11 mph 1017.1mb 50f 40f
7:04pm 2.5ft 11s 7 11 mph 1016.9mb 50f 40f
6:04pm 1.6ft 11s 9 13 mph 1016.9mb 50f 40f
5:04pm 2ft 11s 7 11 mph 1017.1mb 50f 40f
4:04pm 1.3ft 4s 9 11 mph 1017.2mb 50f 39f
3:04pm 2ft 11s 7
mph
1017.7mb 50f 39f
2:04pm 1.6ft 11s 4 7 mph 1017.9mb 50f 38f
1:04pm 2ft 11s 7 11 mph 1018mb 50f 38f
12:04pm 1.3ft 11s 7 11 mph 1018.8mb 50f 38f
11:04am  -   -  7 9 mph 1019.3mb 50f 38f
10:04am 2.5ft 11s 11 13 mph 1019.6mb 50f 38f
9:04am  -   -  13 16 mph 1019.5mb 50f 37f
8:04am 2.5ft 11s 16 18 mph 1019.1mb 50f 38f
7:04am 1ft 2s 11 16 mph 1018.8mb 50f 38f
6:04am 1.3ft 2s 9 11 mph 1018.5mb 50f 37f
5:04am 1.6ft 3s 11 13 mph 1018.1mb 50f 37f
4:04am 1.6ft 3s 16 18 mph 1017.4mb 50f 37f
3:04am 1.6ft 3s 13 16 mph 1016.9mb 50f 37f
2:04am 2ft 3s 18 20 mph 1016.3mb 50f 38f
1:04am 2.5ft 3s 18 22 mph 1015mb 50f 38f
12:04am 2.5ft 3s 20 22 mph 1014.3mb 50f 39f
Mon 12/05 11:04pm 2.5ft 3s 22 27 mph 1014mb 50f 38f
10:04pm 2.5ft 3s 22 27 mph 1013.4mb 50f 39f
9:04pm 2.5ft 3s 20 25 mph 1013.2mb 50f 37f
8:04pm 2ft 5s 18 20 mph 1013mb 50f 37f
7:04pm 2ft 5s 16 18 mph 1013.3mb 50f 35f
6:04pm 2.5ft 5s 13 18 mph 1013mb 50f 36f
5:04pm 2.5ft 5s 11 16 mph 1012.8mb 50f 37f
4:04pm 3ft 5s 9 11 mph 1012.6mb 50f 37f
3:04pm 2.5ft 4s 11 13 mph 1012.8mb 50f 37f
2:04pm 3ft 4s 18 22 mph 1012.4mb 50f 41f
1:04pm 1.6ft 3s 18 22 mph 1012.8mb 50f 40f
12:04pm 2ft 11s 2 4 mph 1014.1mb 50f 36f
11:04am  -   -  2 4 mph 1015.7mb 50f 34f
10:04am 1.6ft 8s 4 7 mph 1017.1mb 50f 34f
9:04am 1.3ft 4s 9 13 mph 1017.7mb 50f 35f
8:04am 2ft 11s 16 20 mph 1018.3mb 50f 40f
7:04am 2ft 11s 9 13 mph 1018.2mb 50f 39f
6:04am 1.6ft 4s 9 11 mph 1018.6mb 50f 38f
5:04am 1.6ft 5s 4 9 mph 1019.4mb 50f 37f
4:04am 1.6ft 5s  -  mph - 50f -
3:04am 1.6ft 4s 7 9 mph 1019.8mb 50f 36f
2:04am 1.6ft 4s 4 9 mph 1020.5mb 50f 36f
1:04am 2ft 4s 9 11 mph 1020.7mb 50f 36f
12:04am 2ft 4s 11 16 mph 1020.9mb 50f 36f
Sun 12/04 11:04pm 2ft 4s 13 16 mph 1021.7mb 50f 35f
10:04pm 2ft 4s 16 18 mph 1021.9mb 50f 35f
9:04pm 2.5ft 4s 13 18 mph 1022.8mb 50f 36f
8:04pm 2.5ft 4s 13 18 mph 1022.6mb 50f 36f
7:04pm 1.6ft 3s 16 20 mph 1022mb 50f 37f
6:04pm 2ft 3s 18 22 mph 1021.5mb 50f 38f
5:04pm 2ft 3s 20 27 mph 1021.2mb 50f 39f
4:04pm 2.5ft 3s 18 20 mph 1020.7mb 50f 40f
3:04pm 2ft 3s 16 18 mph 1020.4mb 50f 41f
2:04pm 2ft 3s 13 18 mph 1019.7mb 49f 41f
1:04pm 2ft 3s 13 20 mph 1019.9mb 49f 40f
12:04pm 1.6ft 4s 16 18 mph 1020.2mb 49f 38f
11:04am 1.6ft 3s 13 18 mph 1020.6mb 49f 37f
10:04am 2ft 4s 13 16 mph 1021.2mb 49f 36f
9:04am 2ft 3s 18 20 mph 1020.7mb 49f 36f
8:04am 2.5ft 3s 16 22 mph 1020.7mb 49f 35f
7:04am 2.5ft 3s 20 25 mph 1019.9mb 49f 36f
6:04am 2.5ft 3s 20 25 mph 1019.6mb 49f 36f
5:04am 2.5ft 3s 20 25 mph 1019.2mb 49f 37f
3:04am 2.5ft 3s 13 18 mph 1018.3mb 49f 37f
2:04am 2.5ft 4s 16 20 mph 1018mb 49f 37f
1:04am 2ft 3s 16 22 mph 1017.1mb 49f 38f
12:04am 2ft 3s 16 22 mph 1016.6mb 49f 38f
Sat 12/03 11:04pm 2ft 3s 18 22 mph 1016.3mb 50f 39f
10:04pm 2.5ft 3s 18 20 mph 1016.1mb 50f 39f
9:04pm 2.5ft 3s 18 22 mph 1015.7mb 50f 39f
8:04pm 2.5ft 4s 18 22 mph 1015.7mb 49f 40f
7:04pm 2.5ft 3s 20 25 mph 1015mb 49f 40f